Time;durP1;ratioP1;P1;durP2;ratioP2;P2;SDS_P1;SDS_P2;PMS_P1;PMS_P2;Temp;Humidity;BMP_temperature;BMP_pressure;BME280_temperature;BME280_humidity;BME280_pressure;Samples;Min_cycle;Max_cycle;Signal;HPM_P1;HPM_P2
2022/01/24 00:01:46;;;;;;;65.05;35.80;;;;;;;4.53;88.27;103510.84;4805764;29;20027;-80
2022/01/24 00:04:11;;;;;;;58.20;35.83;;;;;;;4.54;87.79;103515.09;4805712;29;20064;-79
2022/01/24 00:06:37;;;;;;;57.95;37.10;;;;;;;4.54;88.31;103507.44;4805235;29;20023;-80
2022/01/24 00:09:04;;;;;;;58.10;34.65;;;;;;;4.55;86.80;103515.13;4805591;29;20038;-80
2022/01/24 00:11:42;;;;;;;55.08;34.40;;;;;;;4.55;86.45;103516.81;4805533;29;20492;-79
2022/01/24 00:27:21;;;;;;;46.88;29.58;;;;;;;4.31;82.07;103485.13;4805797;29;20095;-79
2022/01/24 00:29:47;;;;;;;52.30;31.45;;;;;;;4.49;81.90;103514.22;4805472;29;20031;-79
2022/01/24 00:32:13;;;;;;;47.55;30.92;;;;;;;4.48;82.09;103512.50;4803852;29;20043;-79
2022/01/24 00:34:38;;;;;;;48.38;31.10;;;;;;;4.49;83.35;103504.84;4805376;29;20037;-79
2022/01/24 00:37:03;;;;;;;48.75;31.25;;;;;;;4.17;83.23;103448.38;4805211;29;20027;-80
2022/01/24 00:39:29;;;;;;;46.63;31.10;;;;;;;4.49;82.27;103506.53;4804927;29;20079;-80
2022/01/24 00:47:20;;;;;;;49.50;32.17;;;;;;;4.52;82.72;103501.44;4805332;29;20456;-79
2022/01/24 00:55:03;;;;;;;46.40;31.67;;;;;;;4.42;81.65;103492.84;4805458;29;20552;-80
2022/01/24 00:57:28;;;;;;;48.22;32.40;;;;;;;4.51;82.76;103502.28;4805190;29;20038;-80
2022/01/24 00:59:54;;;;;;;52.67;32.38;;;;;;;4.50;82.58;103503.97;4805340;29;20035;-79
2022/01/24 01:02:19;;;;;;;53.63;32.33;;;;;;;4.37;82.92;103484.31;4805245;29;20085;-79
2022/01/24 01:07:18;;;;;;;51.97;32.83;;;;;;;4.32;83.33;103468.06;4805353;29;20050;-79
2022/01/24 01:18:16;;;;;;;49.00;31.73;;;;;;;4.25;82.24;103468.91;4806149;29;20058;-80
2022/01/24 01:21:25;;;;;;;50.35;32.67;;;;;;;4.42;82.14;103500.53;4806999;29;20389;-80
2022/01/24 01:23:36;;;;;;;50.05;31.88;;;;;;;4.41;83.99;103486.03;4801094;29;20059;-80
2022/01/24 01:26:02;;;;;;;49.63;32.28;;;;;;;4.39;82.79;103484.31;4808464;29;20046;-79
2022/01/24 01:28:29;;;;;;;50.97;31.92;;;;;;;4.42;82.88;103492.00;4808424;29;20023;-79
2022/01/24 02:00:20;;;;;;;51.20;31.08;;;;;;;4.35;83.91;103497.94;4717540;30;20438;-79
2022/01/24 02:13:12;;;;;;;41.25;26.50;;;;;;;4.36;83.62;103481.75;4734427;30;20106;-80
2022/01/24 02:29:27;;;;;;;43.10;26.23;;;;;;;3.62;81.84;103358.56;4788808;29;20637;-79
2022/01/24 02:32:14;;;;;;;40.03;24.70;;;;;;;4.32;81.32;103475.75;4771472;30;20132;-80
2022/01/24 02:34:49;;;;;;;36.17;23.20;;;;;;;3.68;80.75;103379.06;4769256;30;20055;-79
2022/01/24 02:37:20;;;;;;;36.63;22.85;;;;;;;3.19;80.93;103285.91;4725767;30;20040;-79
2022/01/24 02:39:57;;;;;;;35.90;23.02;;;;;;;4.31;81.17;103471.47;4769334;30;20051;-79
2022/01/24 02:49:45;;;;;;;34.45;21.70;;;;;;;3.14;80.87;103267.16;4698968;30;20045;-79
2022/01/24 02:52:14;;;;;;;33.70;21.95;;;;;;;3.84;81.08;103384.28;4698743;30;20064;-79
2022/01/24 02:58:41;;;;;;;34.85;22.33;;;;;;;4.32;81.57;103466.34;4698555;30;20048;-79
2022/01/24 03:04:45;;;;;;;32.60;21.27;;;;;;;4.31;81.38;103456.13;4716365;30;20126;-80
2022/01/24 03:07:14;;;;;;;31.15;21.25;;;;;;;3.66;79.90;103355.22;4715993;30;20056;-79
2022/01/24 03:10:13;;;;;;;32.15;20.63;;;;;;;4.30;80.25;103457.81;4715981;30;20036;-79
2022/01/24 03:16:46;;;;;;;32.13;20.65;;;;;;;4.28;80.62;103451.84;4715630;30;20037;-79
2022/01/24 03:19:20;;;;;;;32.97;21.35;;;;;;;4.27;79.99;103455.25;4714727;30;20052;-79
2022/01/24 03:22:41;;;;;;;34.05;20.50;;;;;;;4.29;80.08;103452.72;4715722;30;20045;-79
2022/01/24 03:25:06;;;;;;;36.30;21.25;;;;;;;3.32;79.68;103300.47;4703356;29;20120;-79
2022/01/24 03:27:37;;;;;;;33.70;20.38;;;;;;;3.09;79.70;103256.91;4732678;30;20500;-79
2022/01/24 03:30:03;;;;;;;31.17;20.52;;;;;;;4.12;79.69;103432.16;4718349;30;20139;-79
2022/01/24 03:32:29;;;;;;;31.85;21.38;;;;;;;4.24;80.55;103439.06;4734399;30;20129;-79
2022/01/24 03:34:54;;;;;;;33.88;21.02;;;;;;;4.24;79.98;103442.47;4750722;30;20040;-79
2022/01/24 03:37:19;;;;;;;32.30;20.85;;;;;;;3.92;80.54;103382.59;4750445;30;20097;-79
2022/01/24 03:39:45;;;;;;;35.13;23.70;;;;;;;4.23;80.33;103440.75;4750401;30;20154;-79
2022/01/24 03:42:10;;;;;;;32.10;21.45;;;;;;;4.15;80.36;103436.44;4749630;30;20109;-79
2022/01/24 03:44:35;;;;;;;35.58;21.98;;;;;;;4.12;80.52;103436.41;4750173;30;20051;-79
2022/01/24 03:47:30;;;;;;;34.47;21.88;;;;;;;4.03;81.60;103429.53;4750374;30;20059;-79
2022/01/24 03:49:56;;;;;;;34.90;22.70;;;;;;;4.18;81.87;103460.31;4750578;30;20035;-79
2022/01/24 03:52:22;;;;;;;34.08;22.27;;;;;;;4.13;82.02;103439.00;4765340;30;20031;-79
2022/01/24 03:54:49;;;;;;;35.42;22.67;;;;;;;4.16;81.41;103448.38;4785653;30;20035;-79
2022/01/24 03:57:17;;;;;;;34.63;23.17;;;;;;;4.15;81.79;103444.13;4785686;30;20035;-79
2022/01/24 03:59:42;;;;;;;34.75;22.67;;;;;;;4.13;81.32;103445.78;4804572;29;20491;-79
2022/01/24 04:04:43;;;;;;;35.38;21.75;;;;;;;4.11;81.14;103442.38;4113028;27;20082;-80
2022/01/24 04:07:08;;;;;;;36.00;23.02;;;;;;;4.12;83.06;103441.53;4787314;30;20500;-80
2022/01/24 04:09:35;;;;;;;35.63;22.50;;;;;;;4.05;82.76;103435.53;4787530;30;20031;-79
2022/01/24 04:12:01;;;;;;;38.40;22.70;;;;;;;4.09;82.81;103436.41;4787773;30;20040;-79
2022/01/24 04:17:20;;;;;;;34.42;22.98;;;;;;;4.05;82.68;103445.78;4787686;30;20115;-79
2022/01/24 04:22:24;;;;;;;38.58;23.95;;;;;;;3.99;82.94;103422.72;4787626;30;20060;-79
2022/01/24 04:25:01;;;;;;;35.33;22.63;;;;;;;3.35;81.20;103307.31;4939550;24;20014;-80
2022/01/24 04:31:53;;;;;;;35.83;22.67;;;;;;;4.12;82.08;103438.97;4767463;30;20060;-79
2022/01/24 04:40:01;;;;;;;37.08;23.33;;;;;;;4.09;81.13;103452.59;4803435;29;20063;-79
2022/01/24 04:42:39;;;;;;;37.65;23.27;;;;;;;4.08;81.71;103439.81;4789258;29;20089;-80
2022/01/24 04:45:26;;;;;;;37.58;23.65;;;;;;;3.99;81.63;103436.34;4790482;29;20093;-79
2022/01/24 04:50:46;;;;;;;34.72;22.98;;;;;;;3.99;82.34;103432.94;4805425;29;20077;-79
2022/01/24 05:08:42;;;;;;;44.05;25.67;;;;;;;3.94;82.23;103432.06;5028945;24;20125;-80
2022/01/24 05:11:11;;;;;;;39.10;24.98;;;;;;;4.03;81.42;103450.00;4790609;29;20031;-80
2022/01/24 05:24:22;;;;;;;38.38;24.27;;;;;;;4.01;82.17;103446.56;4790292;30;20047;-79
2022/01/24 05:26:48;;;;;;;39.65;25.40;;;;;;;3.85;82.90;103411.56;4790376;30;20546;-79
2022/01/24 05:47:19;;;;;;;42.25;26.15;;;;;;;3.65;83.47;103389.28;4948671;24;20066;-80
2022/01/24 05:49:45;;;;;;;42.40;26.08;;;;;;;3.97;82.86;103443.16;4773877;30;20031;-80
2022/01/24 05:52:12;;;;;;;40.30;25.23;;;;;;;3.97;83.02;103448.28;4789705;30;20056;-80
2022/01/24 05:54:41;;;;;;;41.42;25.10;;;;;;;3.96;81.61;103438.03;4788481;30;20031;-80
2022/01/24 05:57:09;;;;;;;38.60;24.70;;;;;;;3.84;82.12;103425.19;4789674;30;20110;-81
2022/01/24 06:21:08;;;;;;;40.65;24.08;;;;;;;3.95;82.54;103449.13;4728434;24;20064;-80
2022/01/24 06:25:21;;;;;;;43.97;26.95;;;;;;;3.96;82.89;103445.72;4789399;30;20118;-80
2022/01/24 06:27:20;;;;;;;;;;;;;;;;;;;;;
2022/01/24 06:32:30;;;;;;;40.58;24.85;;;;;;;2.80;82.30;103251.59;5307147;24;20059;-80
2022/01/24 06:35:04;;;;;;;42.78;27.08;;;;;;;3.97;82.12;103442.31;4789600;30;20077;-80
2022/01/24 06:38:17;;;;;;;40.58;24.85;;;;;;;2.71;82.03;103225.16;4789189;30;20054;-80
2022/01/24 06:40:45;;;;;;;44.45;25.75;;;;;;;3.88;81.50;103435.44;4769024;30;20051;-80
2022/01/24 07:39:31;;;;;;;46.40;26.70;;;;;;;3.94;81.28;103465.31;4835360;24;20063;-79
2022/01/24 07:45:52;;;;;;;46.33;27.85;;;;;;;2.70;80.22;103265.13;4770338;30;20130;-81
2022/01/24 07:52:16;;;;;;;47.90;27.08;;;;;;;3.95;81.19;103478.09;4770538;30;20455;-80
2022/01/24 07:55:15;;;;;;;48.78;28.25;;;;;;;3.94;80.62;103489.16;4770005;30;20039;-80
2022/01/24 08:00:52;;;;;;;50.38;29.73;;;;;;;3.02;79.13;103356.41;4794446;24;20063;-78
2022/01/24 08:03:26;;;;;;;48.92;28.88;;;;;;;3.47;79.98;103417.25;4787363;29;20083;-79
2022/01/24 08:09:14;;;;;;;48.80;27.80;;;;;;;2.85;79.77;103310.31;4787715;30;20108;-78
2022/01/24 08:11:39;;;;;;;44.90;27.95;;;;;;;2.80;79.79;103296.66;4786261;29;20476;-79
2022/01/24 08:14:08;;;;;;;51.53;28.90;;;;;;;3.10;79.78;103347.13;4787676;30;20039;-79
2022/01/24 08:16:46;;;;;;;49.45;28.73;;;;;;;3.59;79.48;103430.09;4787602;30;20047;-80
2022/01/24 08:19:36;;;;;;;48.35;30.05;;;;;;;4.02;80.32;103496.88;4787578;29;20028;-78
2022/01/24 08:25:48;;;;;;;53.10;30.77;;;;;;;4.06;79.89;103497.75;4787222;29;20185;-78
2022/01/24 08:28:14;;;;;;;53.65;30.45;;;;;;;3.24;79.23;103358.28;4792779;29;20039;-78
2022/01/24 08:31:13;;;;;;;54.30;31.70;;;;;;;4.13;80.05;103505.50;4792102;30;20396;-82
2022/01/24 08:37:13;;;;;;;53.50;31.42;;;;;;;3.57;80.02;103402.84;4793323;30;20127;-80
2022/01/24 09:14:13;;;;;;;58.35;32.40;;;;;;;4.25;78.99;103513.22;4924732;24;20058;-78
2022/01/24 09:30:09;;;;;;;60.13;32.60;;;;;;;3.69;76.69;103429.31;4775287;30;20109;-79
2022/01/24 09:32:41;;;;;;;56.38;31.38;;;;;;;3.77;77.24;103442.16;4774801;30;20166;-81
2022/01/24 09:35:48;;;;;;;60.15;33.95;;;;;;;4.25;77.34;103512.38;4775107;30;20476;-80
2022/01/24 09:38:38;;;;;;;60.72;32.53;;;;;;;4.24;77.37;103516.63;4773723;30;20035;-81
2022/01/24 09:44:38;;;;;;;61.10;33.10;;;;;;;3.83;77.14;103434.53;4772209;30;20101;-78
2022/01/24 09:47:06;;;;;;;59.05;32.63;;;;;;;3.85;76.75;103434.56;4772106;30;20036;-79
2022/01/24 09:49:37;;;;;;;62.13;33.88;;;;;;;3.20;76.93;103310.59;4772017;30;20068;-80
2022/01/24 09:52:18;;;;;;;57.83;34.35;;;;;;;4.39;77.20;103510.75;4772121;30;20041;-80
2022/01/24 09:54:46;;;;;;;61.42;35.08;;;;;;;3.81;76.60;103414.91;4772219;30;20023;-80
2022/01/24 09:57:35;;;;;;;61.05;34.38;;;;;;;4.42;77.07;103504.78;4772043;30;20040;-79
2022/01/24 10:00:16;;;;;;;68.35;35.17;;;;;;;3.83;76.45;103416.63;4771899;30;20425;-79
2022/01/24 10:03:03;;;;;;;60.73;34.13;;;;;;;4.45;77.17;103508.25;4771789;30;20046;-79
2022/01/24 10:05:53;;;;;;;69.18;36.20;;;;;;;3.58;76.83;103366.22;4771881;30;20112;-78
2022/01/24 10:08:24;;;;;;;65.80;36.03;;;;;;;3.76;76.61;103391.91;4771565;30;20019;-79
2022/01/24 10:10:52;;;;;;;64.88;36.13;;;;;;;4.51;76.42;103508.25;4772040;30;20504;-78
2022/01/24 10:16:25;;;;;;;61.92;35.15;;;;;;;4.56;76.08;103500.63;4754123;30;20048;-78
2022/01/24 10:19:00;;;;;;;60.92;34.17;;;;;;;4.55;75.23;103498.91;4753788;30;20485;-76
2022/01/24 10:21:26;;;;;;;61.85;35.20;;;;;;;4.44;75.42;103480.94;4753514;30;20032;-79
2022/01/24 10:23:51;;;;;;;63.08;33.72;;;;;;;4.68;75.85;103502.38;4771253;30;20091;-79
2022/01/24 10:26:18;;;;;;;63.72;34.20;;;;;;;4.47;75.29;103474.97;4771477;30;20481;-79
2022/01/24 10:28:45;;;;;;;62.38;33.45;;;;;;;4.55;74.99;103481.00;4771589;30;20027;-81
2022/01/24 10:31:16;;;;;;;61.63;33.30;;;;;;;4.69;75.31;103507.50;4791848;24;20056;-80
2022/01/24 10:33:50;;;;;;;61.08;34.30;;;;;;;4.70;76.07;103508.34;4789163;30;20031;-78
2022/01/24 10:36:26;;;;;;;60.20;34.00;;;;;;;4.71;75.19;103503.22;4789094;30;20039;-78
2022/01/24 10:38:55;;;;;;;64.18;33.22;;;;;;;4.68;74.52;103505.78;4789019;30;20035;-78
2022/01/24 10:41:24;;;;;;;64.25;33.95;;;;;;;4.49;74.84;103469.00;4788923;30;20503;-78
2022/01/24 10:43:52;;;;;;;58.10;33.30;;;;;;;4.68;75.21;103500.66;4788780;30;20035;-80
2022/01/24 10:46:26;;;;;;;60.92;33.40;;;;;;;4.66;75.11;103491.28;4788664;30;20035;-79
2022/01/24 10:49:04;;;;;;;63.17;34.60;;;;;;;4.67;75.47;103486.16;4788709;30;20581;-79
2022/01/24 10:51:39;;;;;;;62.92;34.25;;;;;;;4.69;75.32;103476.78;4788453;29;20026;-79
2022/01/24 10:54:05;;;;;;;64.97;34.03;;;;;;;4.67;74.21;103467.38;4788846;30;20042;-79
2022/01/24 10:56:43;;;;;;;62.00;33.88;;;;;;;4.85;74.35;103490.50;4788866;29;20103;-77
2022/01/24 10:59:12;;;;;;;61.55;33.67;;;;;;;4.87;74.59;103493.91;4787962;29;20054;-80
2022/01/24 11:01:39;;;;;;;62.88;34.92;;;;;;;4.90;74.47;103481.97;4788687;30;20031;-79
2022/01/24 11:12:18;;;;;;;65.57;33.75;;;;;;;5.07;74.58;103479.47;5073558;24;20405;-79
2022/01/24 11:14:45;;;;;;;62.63;33.50;;;;;;;4.95;73.60;103471.75;4788618;30;20454;-79
2022/01/24 11:17:15;;;;;;;67.05;35.28;;;;;;;5.04;73.74;103482.03;4788587;30;20129;-79
2022/01/24 11:19:48;;;;;;;60.70;33.20;;;;;;;4.88;73.83;103463.19;4787287;30;20031;-79
2022/01/24 11:22:22;;;;;;;64.07;34.65;;;;;;;4.83;73.62;103448.69;4788405;30;20118;-79
2022/01/24 11:24:56;;;;;;;60.00;32.45;;;;;;;4.73;73.33;103446.94;4788350;30;20388;-79
2022/01/24 11:27:23;;;;;;;58.33;32.17;;;;;;;4.98;73.15;103478.59;4788309;30;20114;-78
2022/01/24 11:29:54;;;;;;;62.47;34.40;;;;;;;4.88;74.35;103454.66;4772135;30;20035;-79
2022/01/24 11:32:42;;;;;;;63.05;33.65;;;;;;;5.06;73.67;103471.78;4788169;30;20089;-80
2022/01/24 11:35:08;;;;;;;64.10;33.88;;;;;;;4.90;73.55;103445.25;4788275;30;20035;-79
2022/01/24 11:37:45;;;;;;;60.13;33.08;;;;;;;5.14;73.08;103475.22;4788253;30;20425;-76
2022/01/24 11:40:14;;;;;;;61.63;33.50;;;;;;;5.21;71.87;103470.94;4788120;30;20031;-78
2022/01/24 11:42:43;;;;;;;59.17;32.22;;;;;;;5.24;73.43;103474.38;4788049;30;20070;-77
2022/01/24 11:45:12;;;;;;;64.57;34.80;;;;;;;5.29;72.55;103474.38;4771941;30;20561;-76
2022/01/24 11:47:38;;;;;;;67.38;35.88;;;;;;;5.28;73.54;103465.84;4788220;30;20031;-77
2022/01/24 11:50:31;;;;;;;65.45;35.30;;;;;;;5.40;73.20;103468.41;4788292;30;20110;-77
2022/01/24 11:52:57;;;;;;;61.88;32.25;;;;;;;5.22;71.70;103442.78;4787768;30;20092;-79
2022/01/24 11:55:36;;;;;;;62.38;33.33;;;;;;;5.14;72.69;103416.31;4787956;30;20041;-77
2022/01/24 11:58:05;;;;;;;62.67;34.78;;;;;;;5.30;72.17;103453.03;4788135;30;20118;-78
2022/01/24 12:00:44;;;;;;;65.78;35.03;;;;;;;5.31;72.71;103440.25;4788133;30;20033;-78
2022/01/24 12:03:26;;;;;;;63.92;34.00;;;;;;;5.32;72.16;103433.41;4787226;29;20042;-79
2022/01/24 12:05:54;;;;;;;61.92;31.33;;;;;;;5.46;71.09;103454.75;4786435;30;20074;-78
2022/01/24 12:08:31;;;;;;;60.30;32.78;;;;;;;5.52;72.08;103457.34;4787606;30;20058;-78
2022/01/24 12:11:11;;;;;;;62.47;32.97;;;;;;;5.55;72.85;103454.75;4787670;30;20164;-77
2022/01/24 12:13:43;;;;;;;61.47;31.67;;;;;;;5.45;70.64;103451.34;4802654;29;20055;-77
2022/01/24 12:16:11;;;;;;;66.88;34.63;;;;;;;5.55;71.60;103453.91;4805728;29;20023;-77
2022/01/24 12:18:37;;;;;;;63.60;32.95;;;;;;;5.62;70.34;103448.78;4805541;29;20468;-77
2022/01/24 12:21:03;;;;;;;61.88;32.85;;;;;;;5.67;71.50;103448.78;4805897;29;20035;-79
2022/01/24 12:23:53;;;;;;;61.47;33.35;;;;;;;5.61;72.07;103431.69;4804113;29;20051;-79
2022/01/24 12:26:19;;;;;;;62.47;32.25;;;;;;;5.73;70.58;103452.19;4805580;29;20038;-78
2022/01/24 12:28:45;;;;;;;65.85;33.83;;;;;;;5.76;70.35;103444.50;4804325;29;20039;-80
2022/01/24 12:31:37;;;;;;;62.83;33.72;;;;;;;5.63;69.60;103426.56;4805553;29;20038;-77
2022/01/24 12:34:14;;;;;;;67.05;35.10;;;;;;;5.56;70.28;103412.03;4805603;29;20107;-81
2022/01/24 12:36:50;;;;;;;58.92;31.83;;;;;;;5.69;69.33;103437.66;4805459;29;20464;-79
2022/01/24 12:39:46;;;;;;;58.42;31.88;;;;;;;5.69;69.43;103441.94;4804142;29;20606;-79
2022/01/24 12:42:20;;;;;;;58.30;31.40;;;;;;;5.60;68.87;103427.41;4805338;29;20030;-78
2022/01/24 12:47:16;;;;;;;66.20;34.37;;;;;;;5.54;70.17;103427.44;4805354;29;20042;-78
2022/01/24 12:49:44;;;;;;;63.50;33.22;;;;;;;5.42;70.63;103405.22;4805340;29;20039;-78
2022/01/24 12:52:13;;;;;;;64.07;34.22;;;;;;;5.55;70.16;103424.00;4805253;29;20034;-79
2022/01/24 12:54:42;;;;;;;63.67;32.55;;;;;;;5.48;70.05;103405.19;4805065;29;20035;-78
2022/01/24 12:57:11;;;;;;;67.50;35.47;;;;;;;5.32;68.93;103379.59;4804897;29;20027;-78
2022/01/24 12:59:38;;;;;;;62.03;32.13;;;;;;;5.58;69.13;103421.44;4805307;29;20487;-78
2022/01/24 13:31:12;;;;;;;68.78;35.05;;;;;;;5.65;71.17;103400.06;4770108;30;20500;-79
2022/01/24 13:37:15;;;;;;;67.90;34.55;;;;;;;5.61;70.70;103411.19;4734891;30;20092;-78
2022/01/24 13:53:44;;;;;;;65.05;33.92;;;;;;;5.37;70.87;103406.06;4736497;29;20044;-79
2022/01/24 13:56:29;;;;;;;65.75;33.40;;;;;;;5.40;70.84;103409.47;4734441;30;20037;-78
2022/01/24 13:59:14;;;;;;;64.65;34.38;;;;;;;5.40;71.96;103404.34;4734516;30;20064;-80
2022/01/24 14:01:55;;;;;;;67.53;35.25;;;;;;;5.41;72.02;103398.38;4719597;30;20520;-78
2022/01/24 14:04:28;;;;;;;67.32;35.58;;;;;;;5.36;71.11;103394.09;4734493;30;20106;-79
2022/01/24 14:07:00;;;;;;;64.45;32.75;;;;;;;5.20;71.32;103370.19;4734490;30;20056;-79
2022/01/24 14:09:35;;;;;;;73.93;34.80;;;;;;;5.20;71.62;103372.75;4734301;30;20113;-77
2022/01/24 14:12:01;;;;;;;72.38;36.88;;;;;;;5.36;71.42;103391.53;4734323;30;20098;-83
2022/01/24 14:14:52;;;;;;;66.28;34.53;;;;;;;5.15;71.73;103349.72;4780789;30;20044;-79
2022/01/24 14:17:26;;;;;;;73.57;35.47;;;;;;;5.38;71.82;103388.13;4790478;29;20027;-77
2022/01/24 14:20:03;;;;;;;66.13;34.30;;;;;;;5.35;71.12;103383.00;4798846;29;20524;-79
2022/01/24 14:22:43;;;;;;;72.53;35.10;;;;;;;5.30;72.48;103374.44;4790017;29;20545;-80
2022/01/24 14:25:26;;;;;;;66.13;34.57;;;;;;;5.40;72.00;103388.13;4788700;29;20043;-77
2022/01/24 14:28:10;;;;;;;69.57;35.33;;;;;;;5.33;71.16;103379.59;4789205;30;20031;-79
2022/01/24 14:30:43;;;;;;;68.35;34.63;;;;;;;5.36;71.00;103382.16;4789401;30;20043;-79
2022/01/24 14:33:13;;;;;;;69.80;35.70;;;;;;;5.33;71.46;103383.88;4789062;30;20031;-78
2022/01/24 14:35:55;;;;;;;68.75;34.63;;;;;;;5.31;71.33;103377.88;4789272;30;20035;-78
2022/01/24 14:38:44;;;;;;;68.00;36.28;;;;;;;5.24;71.96;103373.63;4789340;30;20084;-79
2022/01/24 14:41:17;;;;;;;76.80;36.10;;;;;;;5.14;72.30;103360.81;4787888;29;20035;-79
2022/01/24 14:46:32;;;;;;;67.00;34.47;;;;;;;5.21;71.80;103378.72;4789483;30;20104;-79
2022/01/24 14:49:07;;;;;;;70.72;36.00;;;;;;;5.21;72.49;103383.84;4789316;30;20035;-76
2022/01/24 14:51:39;;;;;;;76.28;36.33;;;;;;;4.98;72.73;103343.72;4788862;30;20039;-78
2022/01/24 14:54:07;;;;;;;73.00;35.65;;;;;;;5.17;72.96;103385.56;4788904;30;20031;-75
2022/01/24 14:56:35;;;;;;;71.82;36.38;;;;;;;5.09;72.32;103371.91;4788810;30;20059;-79
2022/01/24 14:59:00;;;;;;;75.30;36.78;;;;;;;5.12;72.38;103377.03;4788830;30;20031;-80
2022/01/24 15:01:26;;;;;;;74.63;35.85;;;;;;;4.98;72.41;103364.19;4788511;30;20083;-78
2022/01/24 15:03:53;;;;;;;74.45;37.58;;;;;;;4.99;72.96;103377.84;4788838;30;20039;-78
2022/01/24 15:06:18;;;;;;;76.97;37.45;;;;;;;5.00;73.57;103380.41;4790286;29;20038;-79
2022/01/24 15:08:46;;;;;;;80.97;38.53;;;;;;;4.91;73.04;103362.47;4806453;29;20468;-79
2022/01/24 15:11:14;;;;;;;78.28;37.53;;;;;;;4.92;73.90;103364.22;4806287;29;20511;-79
2022/01/24 15:13:46;;;;;;;81.93;37.72;;;;;;;4.87;73.38;103361.63;4806637;29;20552;-79
2022/01/24 15:16:17;;;;;;;73.45;36.97;;;;;;;4.80;73.39;103348.81;4806308;29;20395;-79
2022/01/24 15:26:58;;;;;;;79.07;38.15;;;;;;;4.85;73.82;103380.41;4806352;29;20035;-78
2022/01/24 15:29:24;;;;;;;84.93;37.95;;;;;;;4.80;73.24;103376.97;4806346;29;20031;-79
2022/01/24 15:31:49;;;;;;;84.43;38.30;;;;;;;4.57;73.19;103346.22;4806277;29;20487;-79
2022/01/24 15:34:18;;;;;;;90.15;40.22;;;;;;;4.68;73.89;103352.22;4806123;29;20031;-81
2022/01/24 15:36:45;;;;;;;85.10;38.60;;;;;;;4.71;74.91;103374.41;4805324;29;20033;-79
2022/01/24 15:39:11;;;;;;;90.78;40.83;;;;;;;4.66;74.15;103371.84;4806140;29;20041;-78
2022/01/24 15:42:15;;;;;;;94.28;41.25;;;;;;;4.63;75.10;103369.28;4806047;29;20109;-78
2022/01/24 15:49:51;;;;;;;92.07;41.13;;;;;;;4.42;75.50;103347.03;4732721;30;20475;-78
2022/01/24 15:52:16;;;;;;;96.80;41.50;;;;;;;4.39;75.56;103354.69;4732561;30;20049;-79
2022/01/24 15:54:50;;;;;;;103.85;43.95;;;;;;;4.45;75.19;103369.22;4732672;30;20051;-78
2022/01/24 15:59:59;;;;;;;99.00;44.03;;;;;;;4.32;75.62;103364.03;4732630;30;20102;-77
2022/01/24 16:02:24;;;;;;;99.75;42.38;;;;;;;4.10;75.54;103346.91;4732488;30;20032;-77
2022/01/24 16:04:49;;;;;;;98.30;41.83;;;;;;;4.07;76.46;103364.81;4732268;30;20037;-78
2022/01/24 16:07:15;;;;;;;103.43;44.30;;;;;;;3.80;76.86;103357.84;4731984;30;20056;-77
2022/01/24 16:09:40;;;;;;;111.32;43.40;;;;;;;3.65;77.57;103360.31;4732127;30;20047;-79
2022/01/24 16:15:38;;;;;;;109.60;45.50;;;;;;;2.15;78.43;103172.78;4770033;30;20055;-78
2022/01/24 16:18:13;;;;;;;114.20;46.22;;;;;;;2.71;79.95;103294.88;4768157;30;20047;-78
2022/01/24 16:23:29;;;;;;;119.25;47.60;;;;;;;2.88;80.92;103386.91;4769743;30;20513;-78
2022/01/24 16:25:56;;;;;;;120.05;46.67;;;;;;;2.72;81.55;103379.94;4769731;30;20081;-82
2022/01/24 16:28:24;;;;;;;126.70;48.25;;;;;;;2.66;82.18;103385.00;4769506;30;20115;-82
2022/01/24 16:30:54;;;;;;;124.32;49.00;;;;;;;2.56;82.14;103394.22;4769537;30;20039;-78
2022/01/24 16:33:21;;;;;;;136.80;49.30;;;;;;;2.49;82.67;103392.44;4769676;30;20403;-81
2022/01/24 16:35:49;;;;;;;134.48;49.13;;;;;;;2.39;82.72;103396.56;4769745;30;20346;-83
2022/01/24 16:38:15;;;;;;;141.98;52.30;;;;;;;2.16;82.75;103380.97;4769742;30;20035;-81
2022/01/24 16:40:56;;;;;;;138.00;50.55;;;;;;;2.00;82.98;103368.88;4753800;30;20040;-82
2022/01/24 16:48:43;;;;;;;143.07;51.85;;;;;;;1.86;83.82;103406.03;4770939;30;20408;-83
2022/01/24 16:58:44;;;;;;;155.32;53.58;;;;;;;1.61;84.04;103418.41;4772529;30;20047;-84
2022/01/24 17:01:09;;;;;;;153.35;53.58;;;;;;;1.51;84.98;103419.09;4772319;30;20249;-81
2022/01/24 17:03:44;;;;;;;146.85;52.70;;;;;;;1.32;85.08;103415.38;4772923;30;20111;-83
2022/01/24 17:06:15;;;;;;;156.48;53.60;;;;;;;0.59;84.86;103289.47;4772848;30;20151;-80
2022/01/24 17:08:54;;;;;;;167.23;56.42;;;;;;;0.80;85.22;103329.69;4772916;30;20381;-81
2022/01/24 17:14:31;;;;;;;160.07;55.15;;;;;;;1.25;85.76;103433.06;4925866;24;20047;-82
2022/01/24 17:17:24;;;;;;;165.25;54.58;;;;;;;1.13;85.67;103431.19;4772400;30;20043;-82
2022/01/24 17:19:57;;;;;;;173.18;55.88;;;;;;;0.88;86.43;103393.38;4772847;30;20038;-81
2022/01/24 17:22:48;;;;;;;167.15;54.47;;;;;;;1.10;86.10;103428.59;4772507;30;20027;-82
2022/01/24 17:25:20;;;;;;;170.95;53.03;;;;;;;0.18;85.53;103291.22;4772685;30;20027;-82
2022/01/24 17:27:45;;;;;;;;;;;;;;;1.00;84.85;103432.66;4772866;30;20069;-85
2022/01/24 17:30:51;;;;;;;165.43;53.08;;;;;;;0.87;85.79;103428.13;4772224;30;19934;-84
2022/01/24 17:33:44;;;;;;;173.02;54.05;;;;;;;0.77;86.56;103434.72;4772312;30;20040;-82
2022/01/24 17:36:10;;;;;;;166.73;53.78;;;;;;;-0.53;86.34;103233.06;4756934;30;20035;-84
2022/01/24 17:38:44;;;;;;;173.13;56.80;;;;;;;0.70;87.12;103443.09;4772777;30;20392;-80
2022/01/24 17:45:19;;;;;;;161.68;52.60;;;;;;;0.60;87.08;103433.56;4789369;30;20039;-82
2022/01/24 17:48:23;;;;;;;168.23;53.75;;;;;;;0.54;87.52;103431.75;4788722;30;20044;-81
2022/01/24 17:50:49;;;;;;;175.45;54.60;;;;;;;0.47;87.13;103434.13;4790100;30;20082;-81
2022/01/24 17:53:48;;;;;;;160.27;54.05;;;;;;;0.44;87.46;103429.00;4790104;30;20411;-83
2022/01/24 17:56:17;;;;;;;155.35;52.15;;;;;;;-0.98;87.62;103212.59;4789956;30;20058;-83
2022/01/24 17:59:23;;;;;;;156.45;52.53;;;;;;;0.36;87.55;103440.66;4773569;30;20036;-82
2022/01/24 18:53:47;;;;;;;131.82;45.53;;;;;;;-0.80;88.81;103351.66;4807180;29;20137;-78
2022/01/24 18:56:13;;;;;;;146.90;48.53;;;;;;;-0.67;88.90;103367.25;4806683;29;20041;-81
2022/01/24 19:13:35;;;;;;;129.10;44.30;;;;;;;0.06;89.66;103459.50;4786297;29;20085;-80
2022/01/24 19:23:31;;;;;;;142.07;48.03;;;;;;;-1.16;89.66;103251.06;4786132;30;20069;-81
2022/01/24 19:26:11;;;;;;;139.55;48.13;;;;;;;-0.39;89.97;103372.97;4786158;30;20050;-81
2022/01/24 19:32:46;;;;;;;140.70;50.63;;;;;;;0.05;89.59;103459.47;4646199;30;20047;-82
2022/01/24 19:35:12;;;;;;;160.40;54.65;;;;;;;-0.51;89.86;103373.53;4646805;30;20437;-81
2022/01/24 19:41:32;;;;;;;154.57;54.65;;;;;;;0.00;90.10;103456.84;4646558;30;20072;-81
2022/01/24 19:43:58;;;;;;;161.32;58.47;;;;;;;-1.27;89.98;103243.19;4978134;24;20063;-84
2022/01/24 19:46:43;;;;;;;154.82;55.88;;;;;;;0.00;90.10;103454.31;4787387;29;20112;-81
2022/01/24 19:49:17;;;;;;;172.25;57.33;;;;;;;-0.60;90.10;103369.09;4787789;30;20052;-81
2022/01/24 19:52:10;;;;;;;156.52;58.78;;;;;;;0.00;90.54;103459.38;4786903;30;20027;-81
2022/01/24 19:54:54;;;;;;;160.55;58.70;;;;;;;-0.63;90.67;103353.78;4787833;30;20111;-81
2022/01/24 19:57:28;;;;;;;157.27;55.90;;;;;;;0.00;90.36;103461.91;4773758;30;20079;-81
2022/01/24 19:59:54;;;;;;;149.50;58.22;;;;;;;-0.18;90.32;103434.41;4787962;30;20084;-79
2022/01/24 20:02:19;;;;;;;154.00;55.42;;;;;;;0.01;90.54;103460.25;4787687;29;20035;-80
2022/01/24 20:04:46;;;;;;;154.82;57.40;;;;;;;0.06;90.28;103463.72;4787693;30;20051;-81
2022/01/24 20:07:14;;;;;;;145.00;52.40;;;;;;;0.07;90.66;103458.69;4788079;30;20035;-83
2022/01/24 20:09:39;;;;;;;144.13;51.08;;;;;;;-0.14;90.57;103431.09;4787739;30;20027;-83
2022/01/24 20:12:06;;;;;;;127.28;48.30;;;;;;;0.04;90.25;103463.69;4786650;29;20043;-80
2022/01/24 20:14:32;;;;;;;135.52;47.35;;;;;;;-0.10;91.08;103442.19;4771684;30;20038;-83
2022/01/24 20:16:59;;;;;;;123.72;46.35;;;;;;;-0.08;90.90;103433.81;4787578;30;20027;-83